createdAt,value
2023-12-02T00:01:23.087Z,51.74
2023-12-02T00:03:52.425Z,51.77
2023-12-02T00:06:20.548Z,51.86
2023-12-02T00:08:48.588Z,51.75
2023-12-02T00:11:16.824Z,51.85
2023-12-02T00:13:44.839Z,51.93
2023-12-02T00:16:13.004Z,51.54
2023-12-02T00:18:42.507Z,51.75
2023-12-02T00:21:10.685Z,51.44
2023-12-02T00:23:38.836Z,51.60
2023-12-02T00:26:09.164Z,51.68
2023-12-02T00:28:37.656Z,51.74
2023-12-02T00:31:06.176Z,51.61
2023-12-02T00:33:34.373Z,51.53
2023-12-02T00:36:03.912Z,51.64
2023-12-02T00:38:32.347Z,51.61
2023-12-02T00:41:00.496Z,51.64
2023-12-02T00:43:28.538Z,51.66
2023-12-02T00:45:56.557Z,51.56
2023-12-02T00:48:25.342Z,51.71
2023-12-02T00:50:53.608Z,51.62
2023-12-02T00:53:23.172Z,51.79
2023-12-02T00:55:51.216Z,51.54
2023-12-02T00:58:24.677Z,51.50
2023-12-02T01:00:59.650Z,51.57
2023-12-02T01:03:27.715Z,51.63
2023-12-02T01:05:56.248Z,51.44
2023-12-02T01:08:25.806Z,51.59
2023-12-02T01:10:53.884Z,51.48
2023-12-02T01:13:21.926Z,51.52
2023-12-02T01:15:49.916Z,51.60
2023-12-02T01:18:18.196Z,51.60
2023-12-02T01:20:46.407Z,51.73
2023-12-02T01:23:14.447Z,51.70
2023-12-02T01:25:44.003Z,51.71
2023-12-02T01:28:12.047Z,51.83
2023-12-02T01:30:40.135Z,51.63
2023-12-02T01:33:08.292Z,51.69
2023-12-02T01:35:36.377Z,51.71
2023-12-02T01:38:04.629Z,51.56
2023-12-02T01:40:32.617Z,51.65
2023-12-02T01:43:04.946Z,51.75
2023-12-02T01:45:33.085Z,51.79
2023-12-02T01:48:01.354Z,51.52
2023-12-02T01:50:29.761Z,51.83
2023-12-02T01:52:57.751Z,51.62
2023-12-02T01:55:26.673Z,51.82
2023-12-02T01:57:54.739Z,51.77
2023-12-02T02:00:24.996Z,51.84
2023-12-02T02:02:53.179Z,51.93
2023-12-02T02:05:21.497Z,51.93
2023-12-02T02:07:49.577Z,52.19
2023-12-02T02:10:17.566Z,51.82
2023-12-02T02:12:45.627Z,51.95
2023-12-02T02:15:14.010Z,51.95
2023-12-02T02:17:43.642Z,51.91
2023-12-02T02:20:12.853Z,51.96
2023-12-02T02:22:42.332Z,51.92
2023-12-02T02:25:10.876Z,51.88
2023-12-02T02:27:39.070Z,51.86
2023-12-02T02:30:08.547Z,51.90
2023-12-02T02:32:37.218Z,51.93
2023-12-02T02:35:05.863Z,51.83
2023-12-02T02:37:35.145Z,51.79
2023-12-02T02:40:06.961Z,51.95
2023-12-02T02:42:35.013Z,51.73
2023-12-02T02:45:03.180Z,52.01
2023-12-02T02:47:31.404Z,51.93
2023-12-02T02:49:59.676Z,52.00
2023-12-02T02:52:28.632Z,51.91
2023-12-02T02:54:56.664Z,51.95
2023-12-02T02:57:27.101Z,51.83
2023-12-02T02:59:55.444Z,52.09
2023-12-02T03:02:23.538Z,51.98
2023-12-02T03:04:51.609Z,51.89
2023-12-02T03:07:19.901Z,51.85
2023-12-02T03:09:47.965Z,52.00
2023-12-02T03:12:16.097Z,51.80
2023-12-02T03:14:45.659Z,52.00
2023-12-02T03:17:13.962Z,51.85
2023-12-02T03:19:43.062Z,51.89
2023-12-02T03:22:11.079Z,51.74
2023-12-02T03:24:39.179Z,51.78
2023-12-02T03:27:07.600Z,51.96
2023-12-02T03:29:36.870Z,51.90
2023-12-02T03:32:07.452Z,51.93
2023-12-02T03:34:35.523Z,51.89
2023-12-02T03:37:05.219Z,51.96
2023-12-02T03:39:33.541Z,51.99
2023-12-02T03:42:01.686Z,52.09
2023-12-02T03:44:29.772Z,51.97
2023-12-02T03:46:57.932Z,51.77
2023-12-02T03:49:27.606Z,51.75
2023-12-02T03:51:55.735Z,51.85
2023-12-02T03:54:23.809Z,51.71
2023-12-02T03:56:52.163Z,51.79
2023-12-02T03:59:20.183Z,51.76
2023-12-02T04:01:48.331Z,51.83
2023-12-02T04:04:16.500Z,51.92
2023-12-02T04:06:46.163Z,51.93
2023-12-02T04:09:14.391Z,51.92
2023-12-02T04:11:42.567Z,52.00
2023-12-02T04:14:10.646Z,51.98
2023-12-02T04:16:41.998Z,52.10
2023-12-02T04:19:10.246Z,51.96
2023-12-02T04:21:38.463Z,52.09
2023-12-02T04:24:08.754Z,51.98
2023-12-02T04:26:37.916Z,52.03
2023-12-02T04:29:06.079Z,51.98
2023-12-02T04:31:34.670Z,51.98
2023-12-02T04:34:02.934Z,52.05
2023-12-02T04:36:31.967Z,52.02
2023-12-02T04:39:00.285Z,52.14
2023-12-02T04:41:29.714Z,52.12
2023-12-02T04:43:57.782Z,52.11
2023-12-02T04:46:25.825Z,52.16
2023-12-02T04:48:53.992Z,51.96
2023-12-02T04:51:22.202Z,52.04
2023-12-02T04:53:51.503Z,52.10
2023-12-02T04:56:19.588Z,52.12
2023-12-02T04:58:49.008Z,52.12
2023-12-02T05:01:17.060Z,52.23
2023-12-02T05:03:45.188Z,52.12
2023-12-02T05:06:15.450Z,52.08
2023-12-02T05:08:44.601Z,52.29
2023-12-02T05:11:18.672Z,52.25
2023-12-02T05:13:48.352Z,52.39
2023-12-02T05:16:16.461Z,52.26
2023-12-02T05:18:44.760Z,52.38
2023-12-02T05:21:12.855Z,52.15
2023-12-02T05:23:41.407Z,52.15
2023-12-02T05:26:09.924Z,52.57
2023-12-02T05:28:38.143Z,52.16
2023-12-02T05:31:08.525Z,52.13
2023-12-02T05:33:36.575Z,52.11
2023-12-02T05:36:04.958Z,52.10
2023-12-02T05:38:33.088Z,52.05
2023-12-02T05:41:01.119Z,52.29
2023-12-02T05:43:29.222Z,52.10
2023-12-02T05:45:57.349Z,52.13
2023-12-02T05:48:27.182Z,52.19
2023-12-02T05:50:55.353Z,52.23
2023-12-02T05:53:24.357Z,52.17
2023-12-02T05:55:52.408Z,52.21
2023-12-02T05:58:20.530Z,52.09
2023-12-02T06:00:49.334Z,52.33
2023-12-02T06:03:17.442Z,52.32
2023-12-02T06:05:46.896Z,52.32
2023-12-02T06:08:15.431Z,52.39
2023-12-02T06:10:43.531Z,52.30
2023-12-02T06:13:11.700Z,52.37
2023-12-02T06:15:39.777Z,52.40
2023-12-02T06:18:08.108Z,52.25
2023-12-02T06:20:36.164Z,52.35
2023-12-02T06:23:05.597Z,52.33
2023-12-02T06:25:33.683Z,52.34
2023-12-02T06:28:01.733Z,52.38
2023-12-02T06:30:29.844Z,52.23
2023-12-02T06:32:58.109Z,52.33
2023-12-02T06:35:26.333Z,52.19
2023-12-02T06:37:54.403Z,52.17
2023-12-02T06:40:23.983Z,52.33
2023-12-02T06:42:52.052Z,52.41
2023-12-02T06:45:20.198Z,52.32
2023-12-02T06:47:48.321Z,52.34
2023-12-02T06:50:16.498Z,52.44
2023-12-02T06:52:44.564Z,52.21
2023-12-02T06:57:45.585Z,52.35
2023-12-02T07:00:15.275Z,52.29
2023-12-02T07:02:43.993Z,52.10
2023-12-02T07:05:12.070Z,52.40
2023-12-02T07:07:40.085Z,52.24
2023-12-02T07:10:08.547Z,52.41
2023-12-02T07:12:36.665Z,52.49
2023-12-02T07:15:07.968Z,52.38
2023-12-02T07:17:36.236Z,52.59
2023-12-02T07:20:04.507Z,52.53
2023-12-02T07:22:32.529Z,52.67
2023-12-02T07:25:00.535Z,52.67
2023-12-02T07:27:30.142Z,52.67
2023-12-02T07:32:30.626Z,52.72
2023-12-02T07:34:58.693Z,52.78
2023-12-02T07:37:26.727Z,52.85
2023-12-02T07:39:54.823Z,52.79
2023-12-02T07:42:22.807Z,52.91
2023-12-02T07:44:51.129Z,52.84
2023-12-02T07:47:19.375Z,52.87
2023-12-02T07:49:48.928Z,52.93
2023-12-02T07:52:16.975Z,53.00
2023-12-02T07:54:45.055Z,53.04
2023-12-02T07:57:13.163Z,52.97
2023-12-02T07:59:41.515Z,53.07
2023-12-02T08:02:09.762Z,53.12
2023-12-02T08:04:37.854Z,53.18
2023-12-02T08:07:09.033Z,53.31
2023-12-02T08:09:37.216Z,53.29
2023-12-02T08:12:05.894Z,53.19
2023-12-02T08:14:33.995Z,53.49
2023-12-02T08:17:02.230Z,53.33
2023-12-02T08:19:30.426Z,53.47
2023-12-02T08:21:58.783Z,53.31
2023-12-02T08:24:28.311Z,53.51
2023-12-02T08:26:56.363Z,53.51
2023-12-02T08:29:24.420Z,53.57
2023-12-02T08:31:53.921Z,53.64
2023-12-02T08:34:23.576Z,53.53
2023-12-02T08:36:51.631Z,53.58
2023-12-02T08:39:19.658Z,53.67
2023-12-02T08:41:49.169Z,53.68
2023-12-02T08:44:18.149Z,53.99
2023-12-02T08:46:46.403Z,53.79
2023-12-02T08:49:14.582Z,53.94
2023-12-02T08:51:42.990Z,53.93
2023-12-02T08:54:11.065Z,53.68
2023-12-02T08:56:39.216Z,53.94
2023-12-02T08:59:09.450Z,53.99
2023-12-02T09:01:36.618Z,54.01
2023-12-02T09:04:04.952Z,54.16
2023-12-02T09:06:35.438Z,54.15
2023-12-02T09:09:04.475Z,54.22
2023-12-02T09:11:32.613Z,54.31
2023-12-02T09:14:00.788Z,54.35
2023-12-02T09:16:30.694Z,54.26
2023-12-02T09:18:59.043Z,54.20
2023-12-02T09:21:40.234Z,54.29
2023-12-02T09:24:34.263Z,54.35
2023-12-02T09:27:06.658Z,54.47
2023-12-02T09:29:36.814Z,54.55
2023-12-02T09:32:10.533Z,54.47
2023-12-02T09:34:58.014Z,54.54
2023-12-02T09:37:55.158Z,54.40
2023-12-02T09:40:36.631Z,54.24
2023-12-02T09:43:14.352Z,54.20
2023-12-02T09:45:46.811Z,54.19
2023-12-02T09:48:19.981Z,54.37
2023-12-02T09:50:51.796Z,54.25
2023-12-02T09:53:22.519Z,54.30
2023-12-02T09:55:52.470Z,54.24
2023-12-02T09:58:24.000Z,54.22
2023-12-02T10:00:53.122Z,54.16
2023-12-02T10:03:52.526Z,54.44
2023-12-02T10:06:35.747Z,54.32
2023-12-02T10:09:08.752Z,54.15
2023-12-02T10:11:40.498Z,54.03
2023-12-02T10:14:11.435Z,53.70
2023-12-02T10:16:40.038Z,53.69
2023-12-02T10:19:12.311Z,53.84
2023-12-02T10:21:41.957Z,53.38
2023-12-02T10:24:11.244Z,53.67
2023-12-02T10:26:43.015Z,53.27
2023-12-02T10:29:14.445Z,53.28
2023-12-02T10:31:48.180Z,53.52
2023-12-02T10:34:23.367Z,52.94
2023-12-02T10:36:51.583Z,53.27
2023-12-02T10:39:25.090Z,53.92
2023-12-02T10:41:54.356Z,55.11
2023-12-02T10:44:22.893Z,55.57
2023-12-02T10:46:50.993Z,55.16
2023-12-02T10:49:20.631Z,55.13
2023-12-02T10:52:40.355Z,55.93
2023-12-02T10:54:39.272Z,57.85
2023-12-02T10:57:08.807Z,58.94
2023-12-02T10:59:37.625Z,58.79
2023-12-02T11:02:20.089Z,58.49
2023-12-02T11:04:49.606Z,58.16
2023-12-02T11:07:17.893Z,55.66
2023-12-02T11:09:53.959Z,55.48
2023-12-02T11:12:24.656Z,55.75
2023-12-02T11:14:55.263Z,55.20
2023-12-02T11:17:27.621Z,53.89
2023-12-02T11:20:10.358Z,53.06
2023-12-02T11:22:46.890Z,51.05
2023-12-02T11:25:27.956Z,50.36
2023-12-02T11:28:00.079Z,48.54
2023-12-02T11:30:37.734Z,46.83
2023-12-02T11:33:10.954Z,47.55
2023-12-02T11:35:43.199Z,47.68
2023-12-02T11:38:16.989Z,48.17
2023-12-02T11:40:53.173Z,48.31
2023-12-02T11:43:26.891Z,47.65
2023-12-02T11:45:57.009Z,46.89
2023-12-02T11:48:28.942Z,46.27
2023-12-02T11:51:16.383Z,45.94
2023-12-02T11:53:54.512Z,45.86
2023-12-02T11:56:23.715Z,45.42
2023-12-02T11:58:53.855Z,45.30
2023-12-02T12:01:48.090Z,46.19
2023-12-02T12:04:42.046Z,47.43
2023-12-02T12:07:18.555Z,47.59
2023-12-02T12:09:50.600Z,47.36
2023-12-02T12:12:18.642Z,46.79
2023-12-02T12:14:46.659Z,45.84
2023-12-02T12:17:14.812Z,45.40
2023-12-02T12:19:43.200Z,44.67
2023-12-02T12:22:12.644Z,44.54
2023-12-02T12:24:40.789Z,44.31
2023-12-02T12:27:10.063Z,44.22
2023-12-02T12:29:38.782Z,44.52
2023-12-02T12:32:08.004Z,44.38
2023-12-02T12:34:36.206Z,44.23
2023-12-02T12:37:04.272Z,44.16
2023-12-02T12:39:34.487Z,44.54
2023-12-02T12:42:03.336Z,44.47
2023-12-02T12:44:31.937Z,43.15
2023-12-02T12:47:00.667Z,43.96
2023-12-02T12:49:28.920Z,44.51
2023-12-02T12:51:58.675Z,44.67
2023-12-02T12:54:26.850Z,44.90
2023-12-02T12:56:57.980Z,44.00
2023-12-02T12:59:28.112Z,43.27
2023-12-02T13:02:00.577Z,42.58
2023-12-02T13:04:30.479Z,42.00
2023-12-02T13:07:04.085Z,40.63
2023-12-02T13:09:33.122Z,40.50
2023-12-02T13:12:11.316Z,40.44
2023-12-02T13:14:42.863Z,39.76
2023-12-02T13:17:10.988Z,39.07
2023-12-02T13:19:39.038Z,38.92
2023-12-02T13:22:07.440Z,38.69
2023-12-02T13:24:41.310Z,39.01
2023-12-02T13:27:20.981Z,38.96
2023-12-02T13:29:50.018Z,39.02
2023-12-02T13:32:18.173Z,38.92
2023-12-02T13:34:50.826Z,38.26
2023-12-02T13:37:31.291Z,38.06
2023-12-02T13:40:01.668Z,37.46
2023-12-02T13:42:33.963Z,37.87
2023-12-02T13:45:05.714Z,37.79
2023-12-02T13:47:39.525Z,38.45
2023-12-02T13:50:08.391Z,38.05
2023-12-02T13:52:46.325Z,37.54
2023-12-02T13:55:24.041Z,37.28
2023-12-02T13:58:02.613Z,37.29
2023-12-02T14:00:33.673Z,37.17
2023-12-02T14:03:08.921Z,36.45
2023-12-02T14:05:40.808Z,36.63
2023-12-02T14:08:08.932Z,36.87
2023-12-02T14:10:36.959Z,37.60
2023-12-02T14:13:15.158Z,38.24
2023-12-02T14:15:51.220Z,38.92
2023-12-02T14:18:53.873Z,38.79
2023-12-02T14:21:28.072Z,39.95
2023-12-02T14:24:13.861Z,42.44
2023-12-02T14:26:54.565Z,43.13
2023-12-02T14:29:46.458Z,43.24
2023-12-02T14:32:22.936Z,42.63
2023-12-02T14:35:13.657Z,42.02
2023-12-02T14:37:57.208Z,40.96
2023-12-02T14:40:52.827Z,40.26
2023-12-02T14:43:31.205Z,39.70
2023-12-02T14:46:00.841Z,39.35
2023-12-02T14:48:29.536Z,38.14
2023-12-02T14:50:58.664Z,37.29
2023-12-02T14:53:30.795Z,37.89
2023-12-02T14:55:58.914Z,38.39
2023-12-02T14:58:28.258Z,38.96
2023-12-02T15:00:56.596Z,39.68
2023-12-02T15:03:31.280Z,40.32
2023-12-02T15:06:00.245Z,40.67
2023-12-02T15:08:29.029Z,41.02
2023-12-02T15:10:57.080Z,41.36
2023-12-02T15:13:25.720Z,41.95
2023-12-02T15:15:54.505Z,42.22
2023-12-02T15:18:23.074Z,42.46
2023-12-02T15:21:04.864Z,42.98
2023-12-02T15:23:39.715Z,43.26
2023-12-02T15:26:11.712Z,43.28
2023-12-02T15:28:54.164Z,43.40
2023-12-02T15:31:32.273Z,43.95
2023-12-02T15:34:02.674Z,44.44
2023-12-02T15:36:32.888Z,44.62
2023-12-02T15:39:01.553Z,44.54
2023-12-02T15:41:29.754Z,44.52
2023-12-02T15:43:58.401Z,44.71
2023-12-02T15:46:27.681Z,44.75
2023-12-02T15:48:56.144Z,44.90
2023-12-02T15:51:24.516Z,44.98
2023-12-02T15:53:53.950Z,45.12
2023-12-02T15:56:22.011Z,44.86
2023-12-02T15:58:51.601Z,45.02
2023-12-02T16:01:19.916Z,45.08
2023-12-02T16:03:48.340Z,45.50
2023-12-02T16:06:17.186Z,45.67
2023-12-02T16:08:45.342Z,45.96
2023-12-02T16:11:14.749Z,46.13
2023-12-02T16:13:46.192Z,46.17
2023-12-02T16:16:15.008Z,46.20
2023-12-02T16:18:44.231Z,46.33
2023-12-02T16:21:15.062Z,46.25
2023-12-02T16:23:44.529Z,46.46
2023-12-02T16:26:15.275Z,46.54
2023-12-02T16:28:43.331Z,46.47
2023-12-02T16:31:11.763Z,46.63
2023-12-02T16:33:39.866Z,46.74
2023-12-02T16:36:08.991Z,46.80
2023-12-02T16:38:39.601Z,46.86
2023-12-02T16:41:08.234Z,46.85
2023-12-02T16:43:38.781Z,46.81
2023-12-02T16:46:08.318Z,46.69
2023-12-02T16:48:36.854Z,46.82
2023-12-02T16:51:07.719Z,46.63
2023-12-02T16:53:37.435Z,46.59
2023-12-02T16:56:14.889Z,46.68
2023-12-02T16:58:50.674Z,46.80
2023-12-02T17:01:24.102Z,46.83
2023-12-02T17:03:52.192Z,46.83
2023-12-02T17:06:20.702Z,47.07
2023-12-02T17:08:50.686Z,46.98
2023-12-02T17:11:19.710Z,47.01
2023-12-02T17:13:55.861Z,47.06
2023-12-02T17:17:03.682Z,47.19
2023-12-02T17:19:31.528Z,47.30
2023-12-02T17:22:04.478Z,47.59
2023-12-02T17:24:35.074Z,47.62
2023-12-02T17:27:03.453Z,47.72
2023-12-02T17:29:33.500Z,47.90
2023-12-02T17:32:01.647Z,48.30
2023-12-02T17:34:30.280Z,48.17
2023-12-02T17:36:58.424Z,48.24
2023-12-02T17:39:26.640Z,48.26
2023-12-02T17:41:54.743Z,48.66
2023-12-02T17:44:23.505Z,48.74
2023-12-02T17:46:54.747Z,48.71
2023-12-02T17:49:22.873Z,48.83
2023-12-02T17:51:51.242Z,48.78
2023-12-02T17:54:19.426Z,48.99
2023-12-02T17:56:47.730Z,48.97
2023-12-02T17:59:16.219Z,49.25
2023-12-02T18:01:46.397Z,49.26
2023-12-02T18:04:16.179Z,49.36
2023-12-02T18:06:45.548Z,49.36
2023-12-02T18:09:16.245Z,49.28
2023-12-02T18:11:44.315Z,49.23
2023-12-02T18:14:12.372Z,49.39
2023-12-02T18:16:40.914Z,49.29
2023-12-02T18:19:09.716Z,49.21
2023-12-02T18:21:40.597Z,49.35
2023-12-02T18:24:09.470Z,49.23
2023-12-02T18:26:37.814Z,49.27
2023-12-02T18:29:05.930Z,49.24
2023-12-02T18:31:33.937Z,49.34
2023-12-02T18:34:02.054Z,49.16
2023-12-02T18:36:30.858Z,49.26
2023-12-02T18:39:00.326Z,49.21
2023-12-02T18:41:28.337Z,49.07
2023-12-02T18:43:58.993Z,49.20
2023-12-02T18:46:29.989Z,49.09
2023-12-02T18:48:58.744Z,48.90
2023-12-02T18:51:29.573Z,49.23
2023-12-02T18:53:57.678Z,49.14
2023-12-02T18:56:27.059Z,49.08
2023-12-02T18:58:55.819Z,49.13
2023-12-02T19:01:23.862Z,49.24
2023-12-02T19:03:55.486Z,49.19
2023-12-02T19:06:23.715Z,49.28
2023-12-02T19:08:52.706Z,49.41
2023-12-02T19:11:20.819Z,49.60
2023-12-02T19:13:50.367Z,49.53
2023-12-02T19:16:19.987Z,49.46
2023-12-02T19:18:49.709Z,49.59
2023-12-02T19:21:17.795Z,49.58
2023-12-02T19:23:48.339Z,49.44
2023-12-02T19:26:16.447Z,49.49
2023-12-02T19:28:45.455Z,49.43
2023-12-02T19:31:14.904Z,49.37
2023-12-02T19:33:43.435Z,49.45
2023-12-02T19:36:13.907Z,49.42
2023-12-02T19:38:42.484Z,49.39
2023-12-02T19:41:13.459Z,49.43
2023-12-02T19:43:41.922Z,49.39
2023-12-02T19:46:10.152Z,49.65
2023-12-02T19:48:39.611Z,49.55
2023-12-02T19:51:08.112Z,49.62
2023-12-02T19:53:37.880Z,49.59
2023-12-02T19:56:06.610Z,49.51
2023-12-02T19:58:34.696Z,49.54
2023-12-02T20:01:04.819Z,49.68
2023-12-02T20:03:32.905Z,49.55
2023-12-02T20:06:02.335Z,49.57
2023-12-02T20:08:30.420Z,49.69
2023-12-02T20:10:58.930Z,49.67
2023-12-02T20:13:30.035Z,49.68
2023-12-02T20:15:58.163Z,49.67
2023-12-02T20:18:26.271Z,49.89
2023-12-02T20:20:54.518Z,49.89
2023-12-02T20:23:24.463Z,50.08
2023-12-02T20:25:52.535Z,50.17
2023-12-02T20:28:20.544Z,50.10
2023-12-02T20:30:48.642Z,50.14
2023-12-02T20:33:16.862Z,50.05
2023-12-02T20:35:45.094Z,50.10
2023-12-02T20:38:13.298Z,50.30
2023-12-02T20:40:43.917Z,50.42
2023-12-02T20:43:12.118Z,50.29
2023-12-02T20:45:42.317Z,50.35
2023-12-02T20:48:10.449Z,50.62
2023-12-02T20:50:38.488Z,50.45
2023-12-02T20:53:06.512Z,50.70
2023-12-02T20:55:34.545Z,50.69
2023-12-02T20:58:03.936Z,50.64
2023-12-02T21:00:31.994Z,50.77
2023-12-02T21:03:00.293Z,50.55
2023-12-02T21:05:28.478Z,50.83
2023-12-02T21:07:56.546Z,50.87
2023-12-02T21:10:24.650Z,51.29
2023-12-02T21:12:54.475Z,51.35
2023-12-02T21:15:28.351Z,51.52
2023-12-02T21:17:57.058Z,51.77
2023-12-02T21:20:25.205Z,51.97
2023-12-02T21:22:55.079Z,52.38
2023-12-02T21:25:23.249Z,52.45
2023-12-02T21:27:51.588Z,52.69
2023-12-02T21:30:33.347Z,52.89
2023-12-02T21:33:02.146Z,53.08
2023-12-02T21:35:31.015Z,53.01
2023-12-02T21:37:59.544Z,53.25
2023-12-02T21:40:28.902Z,53.37
2023-12-02T21:42:57.996Z,53.62
2023-12-02T21:45:38.403Z,53.83
2023-12-02T21:48:07.112Z,53.97
2023-12-02T21:50:35.247Z,53.98
2023-12-02T21:53:03.269Z,54.08
2023-12-02T21:55:31.379Z,54.07
2023-12-02T21:57:59.564Z,54.41
2023-12-02T22:00:29.057Z,54.42
2023-12-02T22:02:58.355Z,54.41
2023-12-02T22:05:26.647Z,54.56
2023-12-02T22:08:05.496Z,54.59
2023-12-02T22:10:34.054Z,54.73
2023-12-02T22:13:02.069Z,54.55
2023-12-02T22:15:36.067Z,54.51
2023-12-02T22:18:04.534Z,54.60
2023-12-02T22:20:32.662Z,54.64
2023-12-02T22:23:00.837Z,54.69
2023-12-02T22:25:31.054Z,54.87
2023-12-02T22:28:03.997Z,55.38
2023-12-02T22:30:43.765Z,55.48
2023-12-02T22:33:12.499Z,55.76
2023-12-02T22:35:41.419Z,56.09
2023-12-02T22:38:12.803Z,56.17
2023-12-02T22:40:45.698Z,56.29
2023-12-02T22:43:21.292Z,56.44
2023-12-02T22:45:51.141Z,56.92
2023-12-02T22:48:26.116Z,56.96
2023-12-02T22:50:54.534Z,57.05
2023-12-02T22:53:31.042Z,56.94
2023-12-02T22:56:00.721Z,56.97
2023-12-02T22:58:29.070Z,57.12
2023-12-02T23:00:58.933Z,57.30
2023-12-02T23:03:28.605Z,57.24
2023-12-02T23:05:58.333Z,57.27
2023-12-02T23:08:27.154Z,57.32
2023-12-02T23:10:55.211Z,57.24
2023-12-02T23:13:52.881Z,57.37
2023-12-02T23:16:39.994Z,57.58
2023-12-02T23:19:25.293Z,57.56
2023-12-02T23:21:53.537Z,57.42
2023-12-02T23:24:22.293Z,57.35
2023-12-02T23:26:50.474Z,57.29
2023-12-02T23:29:18.523Z,57.37
2023-12-02T23:31:48.086Z,57.27
2023-12-02T23:34:16.311Z,57.23
2023-12-02T23:36:44.507Z,57.31
2023-12-02T23:39:23.026Z,57.15
2023-12-02T23:41:51.148Z,57.20
2023-12-02T23:44:32.460Z,57.20
2023-12-02T23:47:02.205Z,57.17
2023-12-02T23:49:30.337Z,57.16
2023-12-02T23:51:58.547Z,57.36
2023-12-02T23:54:26.627Z,57.31
2023-12-02T23:56:54.668Z,57.14
2023-12-02T23:59:22.756Z,57.38
